createdAt,value
2022-12-24T00:01:08.434Z,52.83
2022-12-24T00:03:37.559Z,42.90
2022-12-24T00:06:09.144Z,50.10
2022-12-24T00:08:37.148Z,45.63
2022-12-24T00:11:04.644Z,48.03
2022-12-24T00:13:32.502Z,40.63
2022-12-24T00:16:00.251Z,39.03
2022-12-24T00:18:28.617Z,53.47
2022-12-24T00:20:56.960Z,50.80
2022-12-24T00:23:24.945Z,46.63
2022-12-24T00:25:52.490Z,41.35
2022-12-24T00:28:20.801Z,47.80
2022-12-24T00:30:49.947Z,46.70
2022-12-24T00:33:24.062Z,44.78
2022-12-24T00:35:53.196Z,48.90
2022-12-24T00:38:20.731Z,47.97
2022-12-24T00:40:49.122Z,46.45
2022-12-24T00:43:16.837Z,43.72
2022-12-24T00:45:44.274Z,49.30
2022-12-24T00:48:12.131Z,49.63
2022-12-24T00:50:39.704Z,57.65
2022-12-24T00:53:07.164Z,50.28
2022-12-24T00:55:34.715Z,54.63
2022-12-24T00:58:02.233Z,56.03
2022-12-24T01:03:36.886Z,57.33
2022-12-24T01:06:05.966Z,63.30
2022-12-24T01:08:33.872Z,62.60
2022-12-24T01:11:03.201Z,58.20
2022-12-24T01:13:30.767Z,57.00
2022-12-24T01:15:58.772Z,60.60
2022-12-24T01:18:26.465Z,60.60
2022-12-24T01:20:58.440Z,58.25
2022-12-24T01:23:25.974Z,57.05
2022-12-24T01:25:53.607Z,58.35
2022-12-24T01:28:21.787Z,63.33
2022-12-24T01:30:50.861Z,52.00
2022-12-24T01:33:19.726Z,55.92
2022-12-24T01:35:48.245Z,52.50
2022-12-24T01:38:16.016Z,59.80
2022-12-24T01:41:02.724Z,56.67
2022-12-24T01:43:34.736Z,52.10
2022-12-24T01:46:06.432Z,48.03
2022-12-24T01:48:34.190Z,60.97
2022-12-24T01:51:09.893Z,47.28
2022-12-24T01:53:38.992Z,41.83
2022-12-24T01:56:07.264Z,49.67
2022-12-24T01:58:36.467Z,56.55
2022-12-24T02:01:07.724Z,52.38
2022-12-24T02:03:35.754Z,49.08
2022-12-24T02:06:03.504Z,45.78
2022-12-24T02:08:40.171Z,56.63
2022-12-24T02:11:12.220Z,59.72
2022-12-24T02:13:41.993Z,48.17
2022-12-24T02:16:15.823Z,51.38
2022-12-24T02:19:02.984Z,50.88
2022-12-24T02:21:46.015Z,52.40
2022-12-24T02:24:42.744Z,60.78
2022-12-24T02:27:10.605Z,44.83
2022-12-24T02:29:41.338Z,67.03
2022-12-24T02:32:12.172Z,54.17
2022-12-24T02:34:42.048Z,39.88
2022-12-24T02:37:13.506Z,50.90
2022-12-24T02:40:01.468Z,57.63
2022-12-24T02:42:33.807Z,58.67
2022-12-24T02:45:06.408Z,59.85
2022-12-24T02:47:34.984Z,52.15
2022-12-24T02:50:03.107Z,53.05
2022-12-24T02:52:32.095Z,52.47
2022-12-24T02:55:02.206Z,57.15
2022-12-24T02:57:49.978Z,56.90
2022-12-24T03:00:20.957Z,50.20
2022-12-24T03:03:11.270Z,63.42
2022-12-24T03:05:53.774Z,58.22
2022-12-24T03:08:28.203Z,59.53
2022-12-24T03:11:00.380Z,71.95
2022-12-24T03:13:28.152Z,48.33
2022-12-24T03:15:56.138Z,77.60
2022-12-24T03:18:25.379Z,60.00
2022-12-24T03:21:05.073Z,58.42
2022-12-24T03:23:33.083Z,72.28
2022-12-24T03:26:02.492Z,73.80
2022-12-24T03:28:30.081Z,54.95
2022-12-24T03:31:03.971Z,63.33
2022-12-24T03:33:31.741Z,56.55
2022-12-24T03:35:59.919Z,60.20
2022-12-24T03:38:27.847Z,66.30
2022-12-24T03:40:55.392Z,70.40
2022-12-24T03:43:23.106Z,62.78
2022-12-24T03:45:50.669Z,56.00
2022-12-24T03:48:19.285Z,60.95
2022-12-24T03:50:47.116Z,61.50
2022-12-24T03:53:15.735Z,67.45
2022-12-24T03:55:43.737Z,66.22
2022-12-24T03:58:11.418Z,59.95
2022-12-24T04:00:39.306Z,62.95
2022-12-24T04:03:07.864Z,74.72
2022-12-24T04:05:35.560Z,77.28
2022-12-24T04:08:03.419Z,73.72
2022-12-24T04:10:31.214Z,81.78
2022-12-24T04:12:58.773Z,60.00
2022-12-24T04:15:26.397Z,72.40
2022-12-24T04:17:54.295Z,58.50
2022-12-24T04:20:22.206Z,70.55
2022-12-24T04:22:50.667Z,67.82
2022-12-24T04:25:19.516Z,68.68
2022-12-24T04:27:47.954Z,60.95
2022-12-24T04:30:15.949Z,69.90
2022-12-24T04:32:43.513Z,70.68
2022-12-24T04:35:10.905Z,57.13
2022-12-24T04:37:38.630Z,71.13
2022-12-24T04:40:06.393Z,65.57
2022-12-24T04:42:33.969Z,64.32
2022-12-24T04:45:01.641Z,59.65
2022-12-24T04:47:29.695Z,66.57
2022-12-24T04:50:01.539Z,71.28
2022-12-24T04:52:29.598Z,50.70
2022-12-24T04:54:57.246Z,61.03
2022-12-24T04:57:24.663Z,74.90
2022-12-24T04:59:52.255Z,63.47
2022-12-24T05:02:20.208Z,72.90
2022-12-24T05:04:48.130Z,51.00
2022-12-24T05:07:23.671Z,54.10
2022-12-24T05:09:51.637Z,61.05
2022-12-24T05:12:20.638Z,58.75
2022-12-24T05:14:48.224Z,65.45
2022-12-24T05:17:15.779Z,45.38
2022-12-24T05:19:43.401Z,55.13
2022-12-24T05:22:37.943Z,63.72
2022-12-24T05:25:24.639Z,58.90
2022-12-24T05:27:54.688Z,47.30
2022-12-24T05:30:22.287Z,60.88
2022-12-24T05:32:50.548Z,64.50
2022-12-24T05:35:18.299Z,59.42
2022-12-24T05:37:45.685Z,55.25
2022-12-24T05:40:13.358Z,61.65
2022-12-24T05:42:40.919Z,61.17
2022-12-24T05:45:08.993Z,58.92
2022-12-24T05:47:42.864Z,62.08
2022-12-24T05:50:11.277Z,53.58
2022-12-24T05:52:41.433Z,60.72
2022-12-24T05:55:09.454Z,62.47
2022-12-24T05:57:37.297Z,53.40
2022-12-24T06:00:05.328Z,64.68
2022-12-24T06:02:40.013Z,71.78
2022-12-24T06:05:08.098Z,69.57
2022-12-24T06:07:38.084Z,56.38
2022-12-24T06:10:05.954Z,66.78
2022-12-24T06:12:33.678Z,69.50
2022-12-24T06:15:02.581Z,61.00
2022-12-24T06:17:30.025Z,53.75
2022-12-24T06:19:57.949Z,72.40
2022-12-24T06:22:25.413Z,67.18
2022-12-24T06:24:53.257Z,60.97
2022-12-24T06:27:21.348Z,59.50
2022-12-24T06:29:52.325Z,65.45
2022-12-24T06:32:21.586Z,70.00
2022-12-24T06:34:50.843Z,66.50
2022-12-24T06:37:20.982Z,76.68
2022-12-24T06:39:49.599Z,68.03
2022-12-24T06:42:17.091Z,56.88
2022-12-24T06:44:45.723Z,76.50
2022-12-24T06:47:13.335Z,76.43
2022-12-24T06:49:41.467Z,63.72
2022-12-24T06:52:12.012Z,78.38
2022-12-24T06:54:39.413Z,59.72
2022-12-24T06:57:07.543Z,69.53
2022-12-24T06:59:35.560Z,70.50
2022-12-24T07:02:03.832Z,79.63
2022-12-24T07:04:31.639Z,74.32
2022-12-24T07:06:59.571Z,69.72
2022-12-24T07:09:27.362Z,67.10
2022-12-24T07:11:55.388Z,75.60
2022-12-24T07:14:22.929Z,68.50
2022-12-24T07:16:55.293Z,69.55
2022-12-24T07:19:26.293Z,63.58
2022-12-24T07:21:54.354Z,70.30
2022-12-24T07:24:21.964Z,57.90
2022-12-24T07:26:50.917Z,65.32
2022-12-24T07:29:19.411Z,72.03
2022-12-24T07:31:47.023Z,61.90
2022-12-24T07:34:18.172Z,61.95
2022-12-24T07:36:46.703Z,64.32
2022-12-24T07:39:14.482Z,57.75
2022-12-24T07:41:42.138Z,50.67
2022-12-24T07:44:12.623Z,54.28
2022-12-24T07:49:07.705Z,63.38
2022-12-24T07:51:35.807Z,55.83
2022-12-24T07:54:05.051Z,65.25
2022-12-24T07:56:33.297Z,61.92
2022-12-24T07:59:00.741Z,61.28
2022-12-24T08:01:28.472Z,58.50
2022-12-24T08:03:56.860Z,58.78
2022-12-24T08:06:24.434Z,73.88
2022-12-24T08:08:52.151Z,58.13
2022-12-24T08:11:20.406Z,59.67
2022-12-24T08:13:48.089Z,61.50
2022-12-24T08:16:15.671Z,70.72
2022-12-24T08:18:43.541Z,67.00
2022-12-24T08:21:11.604Z,61.35
2022-12-24T08:23:39.874Z,65.30
2022-12-24T08:26:08.211Z,55.55
2022-12-24T08:28:36.203Z,66.07
2022-12-24T08:31:06.029Z,50.50
2022-12-24T08:33:33.811Z,54.95
2022-12-24T08:36:03.486Z,50.95
2022-12-24T08:38:31.251Z,55.60
2022-12-24T08:40:59.387Z,55.33
2022-12-24T08:43:27.643Z,59.80
2022-12-24T08:45:55.220Z,63.00
2022-12-24T08:48:27.458Z,53.40
2022-12-24T08:50:55.241Z,62.67
2022-12-24T08:53:22.843Z,62.50
2022-12-24T08:55:55.987Z,77.68
2022-12-24T08:58:23.935Z,53.97
2022-12-24T09:00:51.638Z,67.50
2022-12-24T09:03:27.069Z,63.10
2022-12-24T09:05:56.158Z,70.00
2022-12-24T09:08:24.365Z,59.90
2022-12-24T09:10:52.143Z,67.85
2022-12-24T09:13:23.824Z,59.63
2022-12-24T09:15:57.227Z,65.60
2022-12-24T09:18:26.088Z,60.40
2022-12-24T09:20:59.371Z,65.90
2022-12-24T09:23:27.391Z,81.80
2022-12-24T09:25:55.087Z,79.43
2022-12-24T09:28:24.120Z,65.85
2022-12-24T09:31:02.896Z,50.15
2022-12-24T09:33:32.677Z,55.85
2022-12-24T09:36:01.559Z,50.75
2022-12-24T09:38:31.000Z,61.95
2022-12-24T09:41:03.898Z,54.60
2022-12-24T09:43:37.075Z,64.03
2022-12-24T09:46:05.044Z,62.67
2022-12-24T09:48:40.198Z,66.20
2022-12-24T09:51:10.197Z,58.47
2022-12-24T09:53:49.057Z,62.65
2022-12-24T09:56:19.831Z,58.65
2022-12-24T10:01:25.323Z,52.80
2022-12-24T10:03:54.928Z,59.50
2022-12-24T10:06:30.804Z,48.17
2022-12-24T10:09:14.159Z,59.95
2022-12-24T10:11:55.130Z,65.60
2022-12-24T10:14:23.200Z,51.22
2022-12-24T10:16:51.978Z,63.45
2022-12-24T10:19:25.166Z,57.53
2022-12-24T10:21:56.554Z,61.55
2022-12-24T10:24:31.969Z,60.38
2022-12-24T10:27:26.530Z,62.13
2022-12-24T10:29:57.184Z,55.25
2022-12-24T10:32:30.210Z,68.82
2022-12-24T10:35:02.469Z,62.40
2022-12-24T10:37:31.868Z,63.45
2022-12-24T10:40:00.839Z,45.35
2022-12-24T10:42:37.131Z,60.90
2022-12-24T10:45:07.855Z,54.55
2022-12-24T10:47:35.937Z,62.50
2022-12-24T10:50:22.500Z,55.10
2022-12-24T10:52:52.245Z,53.53
2022-12-24T10:55:20.211Z,44.72
2022-12-24T10:57:57.787Z,49.67
2022-12-24T11:00:33.545Z,47.50
2022-12-24T11:03:52.408Z,56.60
2022-12-24T11:06:24.431Z,52.38
2022-12-24T11:08:53.877Z,45.30
2022-12-24T11:11:23.477Z,49.60
2022-12-24T11:13:51.347Z,49.23
2022-12-24T11:16:24.522Z,42.20
2022-12-24T11:18:54.839Z,39.38
2022-12-24T11:21:35.993Z,50.85
2022-12-24T11:24:09.662Z,55.78
2022-12-24T11:26:37.340Z,48.50
2022-12-24T11:29:04.920Z,60.38
2022-12-24T11:31:37.203Z,60.33
2022-12-24T11:34:31.655Z,56.72
2022-12-24T11:37:14.085Z,41.67
2022-12-24T11:39:45.557Z,47.67
2022-12-24T11:42:31.587Z,52.95
2022-12-24T11:45:00.597Z,50.38
2022-12-24T11:47:39.340Z,52.13
2022-12-24T11:50:39.417Z,56.42
2022-12-24T11:53:12.007Z,52.25
2022-12-24T11:55:46.564Z,51.80
2022-12-24T11:58:22.548Z,40.15
2022-12-24T12:00:53.128Z,42.03
2022-12-24T12:03:37.149Z,48.25
2022-12-24T12:06:08.827Z,52.17
2022-12-24T12:08:37.067Z,53.33
2022-12-24T12:11:24.420Z,51.60
2022-12-24T12:13:53.084Z,40.65
2022-12-24T12:16:24.085Z,42.28
2022-12-24T12:19:07.484Z,53.97
2022-12-24T12:21:43.198Z,37.80
2022-12-24T12:24:15.755Z,41.70
2022-12-24T12:26:43.861Z,49.25
2022-12-24T12:29:12.120Z,50.72
2022-12-24T12:31:45.897Z,53.67
2022-12-24T12:34:27.371Z,42.30
2022-12-24T12:36:58.396Z,51.88
2022-12-24T12:39:25.976Z,45.55
2022-12-24T12:42:00.473Z,34.95
2022-12-24T12:44:31.275Z,28.42
2022-12-24T12:47:02.665Z,43.03
2022-12-24T12:49:37.554Z,34.22
2022-12-24T12:52:21.491Z,44.45
2022-12-24T12:54:52.095Z,35.83
2022-12-24T12:59:58.783Z,30.25
2022-12-24T13:02:40.218Z,34.22
2022-12-24T13:05:08.523Z,33.15
2022-12-24T13:07:45.145Z,38.50
2022-12-24T13:10:26.585Z,43.20
2022-12-24T13:13:03.967Z,37.90
2022-12-24T13:15:50.405Z,34.08
2022-12-24T13:18:41.254Z,31.17
2022-12-24T13:21:38.401Z,36.83
2022-12-24T13:24:28.402Z,40.22
2022-12-24T13:27:14.850Z,45.13
2022-12-24T13:29:53.596Z,27.75
2022-12-24T13:32:22.037Z,31.15
2022-12-24T13:34:54.224Z,51.58
2022-12-24T13:37:24.206Z,31.20
2022-12-24T13:40:07.617Z,36.40
2022-12-24T13:42:55.204Z,36.97
2022-12-24T13:45:32.108Z,35.70
2022-12-24T13:48:20.649Z,39.42
2022-12-24T13:50:56.222Z,36.08
2022-12-24T13:53:28.772Z,39.38
2022-12-24T13:55:58.841Z,36.90
2022-12-24T13:58:26.953Z,38.40
2022-12-24T14:00:56.943Z,38.58
2022-12-24T14:03:27.074Z,41.58
2022-12-24T14:05:58.599Z,40.53
2022-12-24T14:08:29.044Z,34.80
2022-12-24T14:13:39.912Z,31.80
2022-12-24T14:16:13.604Z,27.00
2022-12-24T14:18:51.389Z,38.75
2022-12-24T14:21:24.648Z,36.33
2022-12-24T14:23:55.745Z,36.90
2022-12-24T14:26:25.648Z,37.97
2022-12-24T14:28:57.220Z,30.65
2022-12-24T14:31:25.062Z,37.63
2022-12-24T14:34:07.126Z,37.83
2022-12-24T14:36:35.007Z,34.50
2022-12-24T14:39:04.373Z,36.95
2022-12-24T14:41:50.384Z,30.45
2022-12-24T14:44:24.474Z,45.03
2022-12-24T14:46:59.671Z,44.05
2022-12-24T14:49:30.177Z,34.70
2022-12-24T14:54:31.878Z,39.08
2022-12-24T14:57:11.966Z,32.70
2022-12-24T14:59:52.476Z,38.58
2022-12-24T15:05:09.087Z,36.47
2022-12-24T15:07:43.553Z,41.55
2022-12-24T15:10:25.811Z,43.72
2022-12-24T15:12:54.594Z,44.17
2022-12-24T15:15:22.631Z,41.00
2022-12-24T15:17:51.691Z,33.60
2022-12-24T15:20:21.351Z,30.30
2022-12-24T15:22:51.472Z,29.52
2022-12-24T15:25:42.501Z,28.73
2022-12-24T15:28:20.734Z,38.78
2022-12-24T15:30:49.254Z,34.25
2022-12-24T15:33:18.811Z,40.05
2022-12-24T15:35:54.135Z,49.13
2022-12-24T15:38:28.245Z,37.67
2022-12-24T15:40:56.140Z,37.25
2022-12-24T15:43:23.905Z,38.55
2022-12-24T15:45:51.642Z,30.27
2022-12-24T15:48:25.264Z,24.42
2022-12-24T15:50:55.258Z,34.17
2022-12-24T15:53:25.932Z,34.95
2022-12-24T15:56:12.491Z,32.63
2022-12-24T15:58:41.669Z,26.15
2022-12-24T16:01:16.074Z,29.48
2022-12-24T16:03:54.274Z,33.15
2022-12-24T16:06:22.805Z,35.67
2022-12-24T16:08:53.432Z,21.52
2022-12-24T16:11:23.832Z,34.03
2022-12-24T16:13:51.995Z,45.35
2022-12-24T16:16:21.360Z,29.48
2022-12-24T16:18:49.441Z,31.95
2022-12-24T16:21:41.272Z,43.38
2022-12-24T16:24:20.771Z,30.48
2022-12-24T16:26:49.565Z,28.27
2022-12-24T16:29:18.171Z,27.55
2022-12-24T16:31:46.046Z,39.63
2022-12-24T16:34:18.323Z,31.48
2022-12-24T16:36:47.220Z,42.45
2022-12-24T16:39:26.857Z,34.33
2022-12-24T16:42:14.701Z,40.13
2022-12-24T16:44:43.033Z,48.30
2022-12-24T16:47:13.469Z,49.22
2022-12-24T16:49:41.050Z,26.67
2022-12-24T16:52:13.348Z,31.23
2022-12-24T16:54:43.965Z,25.08
2022-12-24T16:57:11.567Z,27.55
2022-12-24T16:59:39.450Z,26.17
2022-12-24T17:02:14.069Z,27.58
2022-12-24T17:04:42.889Z,34.40
2022-12-24T17:07:14.423Z,27.05
2022-12-24T17:09:42.129Z,36.05
2022-12-24T17:12:09.734Z,41.05
2022-12-24T17:14:37.372Z,90.20
2022-12-24T17:17:05.190Z,72.63
2022-12-24T17:19:32.954Z,102.32
2022-12-24T17:22:01.069Z,98.43
2022-12-24T17:24:28.778Z,68.85
2022-12-24T17:26:56.724Z,87.18
2022-12-24T17:29:24.464Z,103.47
2022-12-24T17:31:52.435Z,52.67
2022-12-24T17:34:21.892Z,52.25
2022-12-24T17:36:51.450Z,57.97
2022-12-24T17:39:27.209Z,54.33
2022-12-24T17:41:55.947Z,24.40
2022-12-24T17:44:23.695Z,17.85
2022-12-24T17:46:51.430Z,27.45
2022-12-24T17:49:20.987Z,27.35
2022-12-24T17:51:50.577Z,39.90
2022-12-24T17:54:19.543Z,37.50
2022-12-24T17:56:47.096Z,81.03
2022-12-24T17:59:16.534Z,87.90
2022-12-24T18:01:44.634Z,75.47
2022-12-24T18:04:15.270Z,54.88
2022-12-24T18:06:48.978Z,46.30
2022-12-24T18:09:25.571Z,55.92
2022-12-24T18:11:53.621Z,54.92
2022-12-24T18:14:23.866Z,42.70
2022-12-24T18:19:23.302Z,46.88
2022-12-24T18:21:51.825Z,36.83
2022-12-24T18:24:20.874Z,38.70
2022-12-24T18:26:50.603Z,47.25
2022-12-24T18:29:20.467Z,42.13
2022-12-24T18:34:19.819Z,46.10
2022-12-24T18:36:54.749Z,52.95
2022-12-24T18:39:24.456Z,49.67
2022-12-24T18:41:52.477Z,49.67
2022-12-24T18:44:24.834Z,43.15
2022-12-24T18:46:53.397Z,44.53
2022-12-24T18:49:21.297Z,42.55
2022-12-24T18:51:49.922Z,48.53
2022-12-24T18:54:17.949Z,56.50
2022-12-24T18:56:51.559Z,46.85
2022-12-24T18:59:20.586Z,38.20
2022-12-24T19:01:49.305Z,48.25
2022-12-24T19:04:17.460Z,43.05
2022-12-24T19:06:52.704Z,40.88
2022-12-24T19:09:22.845Z,39.30
2022-12-24T19:11:51.738Z,47.17
2022-12-24T19:14:20.668Z,48.03
2022-12-24T19:16:53.363Z,38.88
2022-12-24T19:19:26.169Z,49.42
2022-12-24T19:21:57.709Z,48.20
2022-12-24T19:24:28.569Z,44.25
2022-12-24T19:26:56.482Z,47.38
2022-12-24T19:29:24.099Z,49.80
2022-12-24T19:31:52.234Z,56.33
2022-12-24T19:34:21.042Z,53.72
2022-12-24T19:36:50.142Z,40.72
2022-12-24T19:39:20.012Z,40.80
2022-12-24T19:41:48.203Z,47.10
2022-12-24T19:44:15.993Z,49.25
2022-12-24T19:46:43.596Z,52.10
2022-12-24T19:49:11.862Z,47.97
2022-12-24T19:51:39.617Z,42.83
2022-12-24T19:54:14.948Z,51.85
2022-12-24T19:56:48.414Z,50.28
2022-12-24T19:59:16.032Z,41.88
2022-12-24T20:01:45.665Z,45.38
2022-12-24T20:04:14.366Z,52.30
2022-12-24T20:06:41.953Z,48.22
2022-12-24T20:09:10.202Z,49.55
2022-12-24T20:11:38.451Z,46.83
2022-12-24T20:14:07.088Z,44.70
2022-12-24T20:16:35.673Z,43.50
2022-12-24T20:19:05.479Z,45.40
2022-12-24T20:21:34.122Z,39.67
2022-12-24T20:24:02.029Z,49.10
2022-12-24T20:26:30.361Z,43.63
2022-12-24T20:28:58.123Z,53.42
2022-12-24T20:31:27.762Z,45.20
2022-12-24T20:33:56.217Z,48.38
2022-12-24T20:36:24.277Z,50.05
2022-12-24T20:38:55.659Z,45.97
2022-12-24T20:41:25.789Z,66.57
2022-12-24T20:43:53.937Z,44.97
2022-12-24T20:46:23.831Z,51.97
2022-12-24T20:48:51.508Z,57.00
2022-12-24T20:51:29.399Z,53.00
2022-12-24T20:53:59.730Z,54.13
2022-12-24T20:56:29.289Z,55.67
2022-12-24T20:58:58.545Z,60.55
2022-12-24T21:01:27.182Z,49.83
2022-12-24T21:03:56.758Z,67.22
2022-12-24T21:06:25.455Z,44.03
2022-12-24T21:08:54.267Z,53.13
2022-12-24T21:11:41.258Z,56.78
2022-12-24T21:14:08.801Z,55.85
2022-12-24T21:16:37.290Z,55.10
2022-12-24T21:19:05.374Z,53.63
2022-12-24T21:21:35.169Z,52.03
2022-12-24T21:24:03.800Z,52.92
2022-12-24T21:26:33.142Z,58.90
2022-12-24T21:29:01.749Z,61.55
2022-12-24T21:31:30.116Z,57.70
2022-12-24T21:33:58.210Z,63.42
2022-12-24T21:36:27.169Z,52.40
2022-12-24T21:38:55.603Z,66.70
2022-12-24T21:41:24.323Z,61.30
2022-12-24T21:43:52.522Z,61.60
2022-12-24T21:46:25.078Z,50.33
2022-12-24T21:49:32.403Z,47.95
2022-12-24T21:52:00.645Z,56.97
2022-12-24T21:54:31.212Z,55.63
2022-12-24T21:59:46.566Z,50.40
2022-12-24T22:02:16.557Z,65.88
2022-12-24T22:04:46.182Z,43.03
2022-12-24T22:07:39.848Z,58.05
2022-12-24T22:10:28.907Z,50.28
2022-12-24T22:12:56.914Z,54.42
2022-12-24T22:15:30.185Z,47.03
2022-12-24T22:18:11.601Z,43.65
2022-12-24T22:20:40.236Z,64.75
2022-12-24T22:23:08.725Z,47.92
2022-12-24T22:25:36.431Z,61.95
2022-12-24T22:28:04.216Z,46.63
2022-12-24T22:30:37.979Z,43.38
2022-12-24T22:33:06.790Z,45.35
2022-12-24T22:35:34.720Z,43.00
2022-12-24T22:38:02.795Z,39.45
2022-12-24T22:40:31.806Z,52.15
2022-12-24T22:42:59.421Z,43.08
2022-12-24T22:45:27.259Z,46.72
2022-12-24T22:47:55.381Z,48.35
2022-12-24T22:50:24.298Z,46.58
2022-12-24T22:52:53.350Z,38.45
2022-12-24T22:55:22.187Z,42.42
2022-12-24T22:57:52.739Z,41.30
2022-12-24T23:02:49.575Z,46.60
2022-12-24T23:05:18.480Z,50.63
2022-12-24T23:07:46.212Z,46.17
2022-12-24T23:10:13.788Z,53.70
2022-12-24T23:12:59.691Z,43.63
2022-12-24T23:15:27.899Z,35.55
2022-12-24T23:17:56.132Z,45.20
2022-12-24T23:20:24.492Z,44.38
2022-12-24T23:22:52.491Z,43.92
2022-12-24T23:25:20.817Z,35.33
2022-12-24T23:27:49.944Z,37.00
2022-12-24T23:30:18.185Z,44.03
2022-12-24T23:32:45.786Z,39.10
2022-12-24T23:35:13.241Z,55.05
2022-12-24T23:37:43.923Z,42.28
2022-12-24T23:40:11.651Z,44.05
2022-12-24T23:42:39.362Z,50.17
2022-12-24T23:45:07.348Z,45.17
2022-12-24T23:47:34.932Z,42.50
2022-12-24T23:50:04.200Z,46.58
2022-12-24T23:52:34.827Z,38.33
2022-12-24T23:55:02.510Z,41.22
2022-12-24T23:57:34.707Z,45.80
